Home > Products > Valid Products > TAF

000
FTUS43 KMKX 240520
TAFMKE
TAF
KMKE 240520Z 2406/2512 35005KT P6SM SCT070
     FM241500 04008KT P6SM FEW250
     FM242300 13004KT P6SM SCT250
     FM250300 17003KT P6SM SCT150 BKN250
     FM251100 21004KT P6SM SCT050 BKN100=



000
FTUS43 KMKX 240520
TAFMSN
TAF
KMSN 240520Z 2406/2506 12005KT P6SM SCT070
     FM241500 VRB04KT P6SM SCT050
     FM250000 17005KT P6SM SCT050 SCT250=



000
FTUS43 KMKX 240520
TAFMSN
TAF
KMSN 240520Z 2406/2506 12005KT P6SM SCT070
     FM241500 VRB04KT P6SM SCT050
     FM250000 17005KT P6SM SCT050 SCT250=



000
FTUS43 KMKX 240520
TAFMKE
TAF
KMKE 240520Z 2406/2512 35005KT P6SM SCT070
     FM241500 04008KT P6SM FEW250
     FM242300 13004KT P6SM SCT250
     FM250300 17003KT P6SM SCT150 BKN250
     FM251100 21004KT P6SM SCT050 BKN100=



000
FTUS43 KMKX 240406 AAA
TAFMKE
TAF AMD
KMKE 240406Z 2404/2506 01006KT P6SM FEW060
     FM241600 04007KT P6SM FEW250
     FM242300 13004KT P6SM SCT250=



000
FTUS43 KMKX 240406 AAA
TAFMKE
TAF AMD
KMKE 240406Z 2404/2506 01006KT P6SM FEW060
     FM241600 04007KT P6SM FEW250
     FM242300 13004KT P6SM SCT250=



000
FTUS43 KMKX 232320
TAFMKE
TAF
KMKE 232320Z 2400/2506 03008KT P6SM SCT070 SCT250
     FM241600 16007KT P6SM FEW250=



000
FTUS43 KMKX 232320
TAFMSN
TAF
KMSN 232320Z 2400/2424 04008KT P6SM FEW060 SCT250
     FM240400 VRB03KT P6SM SCT200
     FM241500 12004KT P6SM SCT050=



000
FTUS43 KMKX 232320
TAFMSN
TAF
KMSN 232320Z 2400/2424 04008KT P6SM FEW060 SCT250
     FM240400 VRB03KT P6SM SCT200
     FM241500 12004KT P6SM SCT050=



000
FTUS43 KMKX 232320
TAFMKE
TAF
KMKE 232320Z 2400/2506 03008KT P6SM SCT070 SCT250
     FM241600 16007KT P6SM FEW250=



000
FTUS43 KMKX 232102 AAA
TAFMKE
TAF AMD
KMKE 232102Z 2321/2424 03013G20KT P6SM FEW030
     FM240000 03010KT P6SM SKC
     FM240400 03005KT P6SM SKC
     FM241800 09008KT P6SM FEW040=



000
FTUS43 KMKX 232101 AAA
TAFMSN
TAF AMD
KMSN 232101Z 2321/2418 02010KT P6SM SCT050 BKN070
     FM240100 VRB04KT P6SM SKC
     FM241700 14004KT P6SM SCT050=



000
FTUS43 KMKX 232101 AAA
TAFMSN
TAF AMD
KMSN 232101Z 2321/2418 02010KT P6SM SCT050 BKN070
     FM240100 VRB04KT P6SM SKC
     FM241700 14004KT P6SM SCT050=



000
FTUS43 KMKX 231737
TAFMKE
TAF
KMKE 231737Z 2318/2424 03013G20KT P6SM FEW030
     FM240000 03010KT P6SM SKC
     FM240400 03005KT P6SM SKC
     FM241800 09008KT P6SM FEW040=



000
FTUS43 KMKX 231737
TAFMSN
TAF
KMSN 231737Z 2318/2418 02010KT P6SM BKN040
     FM232100 02010KT P6SM SCT050
     FM240100 04005KT P6SM SKC
     FM241700 14004KT P6SM SCT050=



000
FTUS43 KMKX 231737
TAFMSN
TAF
KMSN 231737Z 2318/2418 02010KT P6SM BKN040
     FM232100 02010KT P6SM SCT050
     FM240100 04005KT P6SM SKC
     FM241700 14004KT P6SM SCT050=



000
FTUS43 KMKX 231737
TAFMKE
TAF
KMKE 231737Z 2318/2424 03013G20KT P6SM FEW030
     FM240000 03010KT P6SM SKC
     FM240400 03005KT P6SM SKC
     FM241800 09008KT P6SM FEW040=



000
FTUS43 KMKX 231529 AAA
TAFMSN
TAF AMD
KMSN 231529Z 2315/2412 05011KT P6SM FEW030
     FM231700 04011KT P6SM BKN040
     FM232300 04007KT P6SM SCT050
     FM240500 00000KT P6SM SKC=



000
FTUS43 KMKX 231529 AAA
TAFMSN
TAF AMD
KMSN 231529Z 2315/2412 05011KT P6SM FEW030
     FM231700 04011KT P6SM BKN040
     FM232300 04007KT P6SM SCT050
     FM240500 00000KT P6SM SKC=



000
FTUS43 KMKX 231400 AAA
TAFMKE
TAF AMD
KMKE 231454Z 2315/2418 02013G19KT P6SM SCT030
     FM231700 02013G23KT P6SM SCT045
     FM240000 03008KT P6SM FEW050
     FM240800 02004KT P6SM SKC=



000
FTUS43 KMKX 231400 AAA
TAFMKE
TAF AMD
KMKE 231454Z 2315/2418 02013G19KT P6SM SCT030
     FM231700 02013G23KT P6SM SCT045
     FM240000 03008KT P6SM FEW050
     FM240800 02004KT P6SM SKC=



000
FTUS43 KMKX 231120
TAFMKE
TAF
KMKE 231120Z 2312/2418 01012KT P6SM SKC
     FM231400 02013G23KT P6SM SCT050
     FM240000 03008KT P6SM FEW050
     FM240800 02004KT P6SM SKC=



000
FTUS43 KMKX 231120
TAFMKE
TAF
KMKE 231120Z 2312/2418 01012KT P6SM SKC
     FM231400 02013G23KT P6SM SCT050
     FM240000 03008KT P6SM FEW050
     FM240800 02004KT P6SM SKC=



000
FTUS43 KMKX 231120
TAFMSN
TAF
KMSN 231120Z 2312/2412 01006KT P6SM SKC
     FM231700 01010KT P6SM BKN040
     FM232300 04007KT P6SM SCT050
     FM240500 00000KT P6SM SKC=



000
FTUS43 KMKX 231120
TAFMSN
TAF
KMSN 231120Z 2312/2412 01006KT P6SM SKC
     FM231700 01010KT P6SM BKN040
     FM232300 04007KT P6SM SCT050
     FM240500 00000KT P6SM SKC=



000
FTUS43 KMKX 230930 AAA
TAFMSN
TAF AMD
KMSN 230930Z 2310/2406 36006KT P6SM SKC
     FM231800 02010KT P6SM BKN050
     FM240000 VRB03KT P6SM SCT050=



000
FTUS43 KMKX 230930 AAA
TAFMSN
TAF AMD
KMSN 230930Z 2310/2406 36006KT P6SM SKC
     FM231800 02010KT P6SM BKN050
     FM240000 VRB03KT P6SM SCT050=



000
FTUS43 KMKX 230922 AAA
TAFMKE
TAF AMD
KMKE 230922Z 2309/2412 01012KT P6SM FEW250
     FM231400 02013G21KT P6SM SCT045
     FM231800 02013KT P6SM SCT050
     FM240000 02006KT P6SM SCT050=



000
FTUS43 KMKX 230922 AAA
TAFMKE
TAF AMD
KMKE 230922Z 2309/2412 01012KT P6SM FEW250
     FM231400 02013G21KT P6SM SCT045
     FM231800 02013KT P6SM SCT050
     FM240000 02006KT P6SM SCT050=



000
FTUS43 KMKX 230520
TAFMSN
TAF
KMSN 230520Z 2306/2406 02010KT P6SM SCT040
     FM231800 02010KT P6SM BKN050
     FM240000 VRB03KT P6SM SCT050=



000
FTUS43 KMKX 230520
TAFMKE
TAF
KMKE 230520Z 2306/2412 03015G25KT P6SM BKN040
     FM231000 02013G21KT P6SM SCT045
     FM231800 02013KT P6SM SCT050
     FM240000 02006KT P6SM SCT050=



000
FTUS43 KMKX 230520
TAFMKE
TAF
KMKE 230520Z 2306/2412 03015G25KT P6SM BKN040
     FM231000 02013G21KT P6SM SCT045
     FM231800 02013KT P6SM SCT050
     FM240000 02006KT P6SM SCT050=



000
FTUS43 KMKX 230520
TAFMSN
TAF
KMSN 230520Z 2306/2406 02010KT P6SM SCT040
     FM231800 02010KT P6SM BKN050
     FM240000 VRB03KT P6SM SCT050=



000
FTUS43 KMKX 230300 AAA
TAFMSN
TAF AMD
KMSN 230300Z 2303/2324 35010G18KT P6SM SCT045
     FM230500 02010KT P6SM SCT040
     FM231800 02010KT P6SM BKN040=



000
FTUS43 KMKX 230259 AAB
TAFMKE
TAF AMD
KMKE 230259Z 2303/2406 34014G20KT P6SM BKN045
     FM230330 03015G28KT P6SM SCT060
     FM231000 02014KT P6SM SCT020 SCT045
     FM231400 02015KT P6SM FEW050 SCT250
     FM231800 02014KT P6SM BKN050
     FM240000 02008KT P6SM SCT050=



000
FTUS43 KMKX 230213 AAA
TAFMKE
TAF AMD
KMKE 230213Z 2302/2406 33011KT P6SM BKN040
     FM230400 01015G25KT P6SM SCT060
     FM231000 02014KT P6SM SCT020 SCT045
     FM231400 02015KT P6SM FEW050 SCT250
     FM231800 02014KT P6SM BKN050
     FM240000 02008KT P6SM SCT050=



000
FTUS43 KMKX 230213 AAA
TAFMKE
TAF AMD
KMKE 230213Z 2302/2406 33011KT P6SM BKN040
     FM230400 01015G25KT P6SM SCT060
     FM231000 02014KT P6SM SCT020 SCT045
     FM231400 02015KT P6SM FEW050 SCT250
     FM231800 02014KT P6SM BKN050
     FM240000 02008KT P6SM SCT050=



000
FTUS43 KMKX 222330
TAFMKE
TAF
KMKE 222330Z 2300/2406 25011KT P6SM VCTS BKN040CB
     FM230230 33011G17KT P6SM SCT040
     FM230700 02013KT P6SM SCT020 SCT045
     FM231400 02015KT P6SM FEW050 SCT250
     FM231800 02014KT P6SM BKN050
     FM240000 02008KT P6SM SCT050=



000
FTUS43 KMKX 222330
TAFMSN
TAF
KMSN 222330Z 2300/2324 32012KT P6SM BKN045
     FM230300 02006KT P6SM SCT040
     FM231800 02010KT P6SM BKN040=



000
FTUS43 KMKX 222330
TAFMKE
TAF
KMKE 222330Z 2300/2406 25011KT P6SM VCTS BKN040CB
     FM230230 33011G17KT P6SM SCT040
     FM230700 02013KT P6SM SCT020 SCT045
     FM231400 02015KT P6SM FEW050 SCT250
     FM231800 02014KT P6SM BKN050
     FM240000 02008KT P6SM SCT050=



000
FTUS43 KMKX 222330
TAFMSN
TAF
KMSN 222330Z 2300/2324 32012KT P6SM BKN045
     FM230300 02006KT P6SM SCT040
     FM231800 02010KT P6SM BKN040=



000
FTUS43 KMKX 222156 AAC
TAFMKE
TAF AMD
KMKE 222156Z 2222/2324 25011G19KT P6SM BKN045
     FM230000 25013KT P6SM VCTS BKN045CB
     FM230200 31011KT P6SM SCT040
     FM230500 35011KT P6SM SCT250
     FM231400 02015KT P6SM FEW050 SCT250=



000
FTUS43 KMKX 222156 AAC
TAFMKE
TAF AMD
KMKE 222156Z 2222/2324 25011G19KT P6SM BKN045
     FM230000 25013KT P6SM VCTS BKN045CB
     FM230200 31011KT P6SM SCT040
     FM230500 35011KT P6SM SCT250
     FM231400 02015KT P6SM FEW050 SCT250=



000
FTUS43 KMKX 222137 AAB
TAFMKE
TAF AMD
KMKE 222137Z 2222/2324 24013G19KT P6SM BKN035
     FM222300 25013KT P6SM VCTS SCT035CB
     FM230200 31011KT P6SM SCT040
     FM230500 35011KT P6SM SCT250
     FM231400 02015KT P6SM FEW050 SCT250=



000
FTUS43 KMKX 222137 AAB
TAFMKE
TAF AMD
KMKE 222137Z 2222/2324 24013G19KT P6SM BKN035
     FM222300 25013KT P6SM VCTS SCT035CB
     FM230200 31011KT P6SM SCT040
     FM230500 35011KT P6SM SCT250
     FM231400 02015KT P6SM FEW050 SCT250=



000
FTUS43 KMKX 222107 AAA
TAFMSN
TAF AMD
KMSN 222107Z 2221/2318 27010KT P6SM SCT040
     FM230000 32010KT P6SM SCT040
     FM230300 35007KT P6SM SCT250
     FM231400 03010KT P6SM FEW050 SCT250=



000
FTUS43 KMKX 222107 AAA
TAFMSN
TAF AMD
KMSN 222107Z 2221/2318 27010KT P6SM SCT040
     FM230000 32010KT P6SM SCT040
     FM230300 35007KT P6SM SCT250
     FM231400 03010KT P6SM FEW050 SCT250=



000
FTUS43 KMKX 222024 AAA
TAFMKE
TAF AMD
KMKE 222024Z 2220/2324 22015G21KT P6SM BKN029
     FM222200 25014G21KT P6SM VCTS SCT035CB
     FM230200 31011KT P6SM SCT040
     FM230500 35011KT P6SM SCT250
     FM231400 02015KT P6SM FEW050 SCT250=



000
FTUS43 KMKX 222024 AAA
TAFMKE
TAF AMD
KMKE 222024Z 2220/2324 22015G21KT P6SM BKN029
     FM222200 25014G21KT P6SM VCTS SCT035CB
     FM230200 31011KT P6SM SCT040
     FM230500 35011KT P6SM SCT250
     FM231400 02015KT P6SM FEW050 SCT250=



000
FTUS43 KMKX 221746
TAFMKE
TAF
KMKE 221746Z 2218/2324 22015KT P6SM BKN060
     FM222200 25014G22KT P6SM VCTS SCT040 BKN100CB
     FM230200 31011KT P6SM SCT040 BKN200
     FM230500 35011KT P6SM SCT250
     FM231400 02015KT P6SM FEW050 SCT250=



000
FTUS43 KMKX 221746
TAFMSN
TAF
KMSN 221746Z 2218/2318 22010KT P6SM SCT028
      TEMPO 2218/2219 BKN030
     FM222100 27011G21KT P6SM VCTS SCT040 BKN100CB
     FM230100 32008KT P6SM SCT040 BKN200
     FM230300 35007KT P6SM SCT250
     FM231400 03010KT P6SM FEW050 SCT250=



000
FTUS43 KMKX 221746
TAFMSN
TAF
KMSN 221746Z 2218/2318 22010KT P6SM SCT028
      TEMPO 2218/2219 BKN030
     FM222100 27011G21KT P6SM VCTS SCT040 BKN100CB
     FM230100 32008KT P6SM SCT040 BKN200
     FM230300 35007KT P6SM SCT250
     FM231400 03010KT P6SM FEW050 SCT250=



000
FTUS43 KMKX 221746
TAFMKE
TAF
KMKE 221746Z 2218/2324 22015KT P6SM BKN060
     FM222200 25014G22KT P6SM VCTS SCT040 BKN100CB
     FM230200 31011KT P6SM SCT040 BKN200
     FM230500 35011KT P6SM SCT250
     FM231400 02015KT P6SM FEW050 SCT250=



000
FTUS43 KMKX 221645 AAB
TAFMKE
TAF AMD
KMKE 221645Z 2217/2318 22014G23KT P6SM SCT030 BKN070
     FM222300 25013G22KT P6SM VCTS SCT040 BKN100CB
     FM230200 28011KT P6SM SCT040 BKN200
     FM230500 35011KT P6SM BKN250
     FM231600 02014KT P6SM SCT250=



000
FTUS43 KMKX 221645 AAB
TAFMKE
TAF AMD
KMKE 221645Z 2217/2318 22014G23KT P6SM SCT030 BKN070
     FM222300 25013G22KT P6SM VCTS SCT040 BKN100CB
     FM230200 28011KT P6SM SCT040 BKN200
     FM230500 35011KT P6SM BKN250
     FM231600 02014KT P6SM SCT250=



000
FTUS43 KMKX 221625 AAB
TAFMSN
TAF AMD
KMSN 221625Z 2216/2312 22013G22KT P6SM BKN028 BKN200
      TEMPO 2216/2217 SCT030
     FM221700 22013G22KT P6SM SCT035 SCT080
     FM222000 25011G21KT P6SM VCTS SCT040 BKN100CB
     FM230000 29008KT P6SM SCT040 BKN200
     FM230200 35008KT P6SM BKN200
     FM230700 02007KT P6SM SKC=



000
FTUS43 KMKX 221625 AAB
TAFMSN
TAF AMD
KMSN 221625Z 2216/2312 22013G22KT P6SM BKN028 BKN200
      TEMPO 2216/2217 SCT030
     FM221700 22013G22KT P6SM SCT035 SCT080
     FM222000 25011G21KT P6SM VCTS SCT040 BKN100CB
     FM230000 29008KT P6SM SCT040 BKN200
     FM230200 35008KT P6SM BKN200
     FM230700 02007KT P6SM SKC=



000
FTUS43 KMKX 221527 AAA
TAFMSN
TAF AMD
KMSN 221527Z 2215/2312 21013G22KT P6SM SCT040 BKN200
     FM222000 25011G21KT P6SM VCTS SCT040 BKN100CB
     FM230000 29008KT P6SM SCT040 BKN200
     FM230200 35008KT P6SM BKN200
     FM230700 02007KT P6SM SKC=



000
FTUS43 KMKX 221527 AAA
TAFMSN
TAF AMD
KMSN 221527Z 2215/2312 21013G22KT P6SM SCT040 BKN200
     FM222000 25011G21KT P6SM VCTS SCT040 BKN100CB
     FM230000 29008KT P6SM SCT040 BKN200
     FM230200 35008KT P6SM BKN200
     FM230700 02007KT P6SM SKC=



000
FTUS43 KMKX 221525 AAA
TAFMKE
TAF AMD
KMKE 221525Z 2215/2318 22012G23KT P6SM SCT070 BKN200
     FM222300 25013G22KT P6SM -TSRA SCT040 BKN100CB
     FM230200 28011KT P6SM SCT040 BKN200
     FM230500 35011KT P6SM BKN250
     FM231600 02014KT P6SM SCT250=



000
FTUS43 KMKX 221525 AAA
TAFMKE
TAF AMD
KMKE 221525Z 2215/2318 22012G23KT P6SM SCT070 BKN200
     FM222300 25013G22KT P6SM -TSRA SCT040 BKN100CB
     FM230200 28011KT P6SM SCT040 BKN200
     FM230500 35011KT P6SM BKN250
     FM231600 02014KT P6SM SCT250=



000
FTUS43 KMKX 221123
TAFMSN
TAF
KMSN 221123Z 2212/2312 19010G21KT P6SM FEW060 SCT150 BKN250
     FM221500 21013G22KT P6SM SCT120 BKN200
     FM222000 25011G21KT P6SM VCTS SCT040 BKN100CB
     FM230000 29008KT P6SM SCT040 BKN200
     FM230200 35008KT P6SM BKN200
     FM230700 02007KT P6SM SKC=



000
FTUS43 KMKX 221123
TAFMKE
TAF
KMKE 221123Z 2212/2318 21011KT P6SM SCT060 BKN250
     FM221500 22012G23KT P6SM SCT200
     FM222300 25013G22KT P6SM SCT040 BKN100CB
     FM230200 28011KT P6SM SCT040 BKN200
     FM230500 35011KT P6SM BKN250
     FM231600 02014KT P6SM SCT250=



000
FTUS43 KMKX 221123
TAFMSN
TAF
KMSN 221123Z 2212/2312 19010G21KT P6SM FEW060 SCT150 BKN250
     FM221500 21013G22KT P6SM SCT120 BKN200
     FM222000 25011G21KT P6SM VCTS SCT040 BKN100CB
     FM230000 29008KT P6SM SCT040 BKN200
     FM230200 35008KT P6SM BKN200
     FM230700 02007KT P6SM SKC=



000
FTUS43 KMKX 221123
TAFMKE
TAF
KMKE 221123Z 2212/2318 21011KT P6SM SCT060 BKN250
     FM221500 22012G23KT P6SM SCT200
     FM222300 25013G22KT P6SM SCT040 BKN100CB
     FM230200 28011KT P6SM SCT040 BKN200
     FM230500 35011KT P6SM BKN250
     FM231600 02014KT P6SM SCT250=



000
FTUS43 KMKX 221111 AAB
TAFMSN
TAF AMD
KMSN 221111Z 2211/2306 19012G21KT P6SM FEW060 SCT150 BKN250
     FM221800 22013G23KT P6SM SCT120 BKN250
     FM222200 23010G20KT P6SM VCTS SCT040 BKN100CB
     FM230000 30008KT P6SM SCT040 BKN250
     FM230200 01008KT P6SM SCT040 SCT250=



000
FTUS43 KMKX 220905 AAA
TAFMSN
TAF AMD
KMSN 220905Z 2209/2306 19009KT P6SM FEW250
     FM221400 20013KT P6SM BKN250
     FM221800 22013G23KT P6SM SCT120 BKN250
     FM222200 23010G20KT P6SM VCTS SCT040 BKN100CB
     FM230000 30008KT P6SM SCT040 BKN250
     FM230200 01008KT P6SM SCT040 SCT250=



000
FTUS43 KMKX 220904 AAA
TAFMKE
TAF AMD
KMKE 220904Z 2209/2312 21006KT P6SM FEW250
     FM221400 20013KT P6SM BKN250
     FM221800 22014G25KT P6SM SCT120 BKN250
     FM222300 23013G23KT P6SM VCTS SCT040 BKN100CB
     FM230100 25010KT P6SM SCT040 BKN250
     FM230300 34013KT P6SM SCT040 SCT250=



000
FTUS43 KMKX 220904 AAA
TAFMKE
TAF AMD
KMKE 220904Z 2209/2312 21006KT P6SM FEW250
     FM221400 20013KT P6SM BKN250
     FM221800 22014G25KT P6SM SCT120 BKN250
     FM222300 23013G23KT P6SM VCTS SCT040 BKN100CB
     FM230100 25010KT P6SM SCT040 BKN250
     FM230300 34013KT P6SM SCT040 SCT250=



000
FTUS43 KMKX 220520
TAFMKE
TAF
KMKE 220520Z 2206/2312 18008KT P6SM FEW250
     FM221400 20013KT P6SM BKN250
     FM221800 22014G25KT P6SM SCT120 BKN250
     FM222300 23013G23KT P6SM VCTS SCT040 BKN100CB
     FM230100 25010KT P6SM SCT040 BKN250
     FM230300 34013KT P6SM SCT040 SCT250=



000
FTUS43 KMKX 220520
TAFMSN
TAF
KMSN 220520Z 2206/2306 18009KT P6SM FEW250
     FM221400 20013KT P6SM BKN250
     FM221800 22013G23KT P6SM SCT120 BKN250
     FM222200 23010G20KT P6SM VCTS SCT040 BKN100CB
     FM230000 30008KT P6SM SCT040 BKN250
     FM230200 01008KT P6SM SCT040 SCT250=



000
FTUS43 KMKX 220520
TAFMKE
TAF
KMKE 220520Z 2206/2312 18008KT P6SM FEW250
     FM221400 20013KT P6SM BKN250
     FM221800 22014G25KT P6SM SCT120 BKN250
     FM222300 23013G23KT P6SM VCTS SCT040 BKN100CB
     FM230100 25010KT P6SM SCT040 BKN250
     FM230300 34013KT P6SM SCT040 SCT250=



000
FTUS43 KMKX 220520
TAFMSN
TAF
KMSN 220520Z 2206/2306 18009KT P6SM FEW250
     FM221400 20013KT P6SM BKN250
     FM221800 22013G23KT P6SM SCT120 BKN250
     FM222200 23010G20KT P6SM VCTS SCT040 BKN100CB
     FM230000 30008KT P6SM SCT040 BKN250
     FM230200 01008KT P6SM SCT040 SCT250=



000
FTUS43 KMKX 220312 AAA
TAFMKE
TAF AMD
KMKE 220312Z 2203/2306 18008KT P6SM FEW120 SCT250
     FM221400 20013KT P6SM BKN250
     FM221800 22014G25KT P6SM SCT120 BKN250
     FM222300 23012KT P6SM VCTS SCT040 BKN100CB
     FM230300 30011KT P6SM SCT100 OVC200=



000
FTUS43 KMKX 220312 AAA
TAFMKE
TAF AMD
KMKE 220312Z 2203/2306 18008KT P6SM FEW120 SCT250
     FM221400 20013KT P6SM BKN250
     FM221800 22014G25KT P6SM SCT120 BKN250
     FM222300 23012KT P6SM VCTS SCT040 BKN100CB
     FM230300 30011KT P6SM SCT100 OVC200=



000
FTUS43 KMKX 212322
TAFMSN
TAF
KMSN 212322Z 2200/2224 17008KT P6SM FEW100 SCT250
      TEMPO 2210/2213 4SM BR
     FM221400 20012KT P6SM BKN250
     FM221800 22014G23KT P6SM SCT120 BKN250
     FM222200 25010KT P6SM VCTS SCT040 BKN100CB=



000
FTUS43 KMKX 212322
TAFMKE
TAF
KMKE 212322Z 2200/2306 16008KT P6SM FEW120 SCT250
     FM221400 20013KT P6SM BKN250
     FM221800 22014G25KT P6SM SCT120 BKN250
     FM222300 23012KT P6SM VCTS SCT040 BKN100CB
     FM230300 30011KT P6SM SCT100 OVC200=



000
FTUS43 KMKX 212322
TAFMKE
TAF
KMKE 212322Z 2200/2306 16008KT P6SM FEW120 SCT250
     FM221400 20013KT P6SM BKN250
     FM221800 22014G25KT P6SM SCT120 BKN250
     FM222300 23012KT P6SM VCTS SCT040 BKN100CB
     FM230300 30011KT P6SM SCT100 OVC200=



000
FTUS43 KMKX 212322
TAFMSN
TAF
KMSN 212322Z 2200/2224 17008KT P6SM FEW100 SCT250
      TEMPO 2210/2213 4SM BR
     FM221400 20012KT P6SM BKN250
     FM221800 22014G23KT P6SM SCT120 BKN250
     FM222200 25010KT P6SM VCTS SCT040 BKN100CB=



000
FTUS43 KMKX 212033 AAB
TAFMSN
TAF AMD
KMSN 212033Z 2121/2218 19010KT P6SM SCT060
     FM220100 17007KT P6SM SKC
     FM221400 20011G19KT P6SM SCT250=



000
FTUS43 KMKX 212033 AAB
TAFMSN
TAF AMD
KMSN 212033Z 2121/2218 19010KT P6SM SCT060
     FM220100 17007KT P6SM SKC
     FM221400 20011G19KT P6SM SCT250=



000
FTUS43 KMKX 212033 AAB
TAFMKE
TAF AMD
KMKE 212033Z 2121/2224 14010KT P6SM SCT035
     FM220200 17006KT P6SM SKC
     FM221400 20011G17KT P6SM SCT250
     FM222100 23012G19KT P6SM VCTS SCT050CB=



000
FTUS43 KMKX 212001 AAA
TAFMSN
TAF AMD
KMSN 212001Z 2120/2218 19010KT P6SM SCT060
     FM220100 17007KT P6SM SKC
     FM221400 20011G19KT P6SM SCT250=



000
FTUS43 KMKX 212001 AAA
TAFMSN
TAF AMD
KMSN 212001Z 2120/2218 19010KT P6SM SCT060
     FM220100 17007KT P6SM SKC
     FM221400 20011G19KT P6SM SCT250=



000
FTUS43 KMKX 211957 AAA
TAFMKE
TAF AMD
KMKE 211957Z 2120/2224 14010KT P6SM SCT035
     FM220200 17006KT P6SM SKC
     FM221400 20011G17KT P6SM SCT250
     FM222100 23012G19KT P6SM VCTS SCT050CB=



000
FTUS43 KMKX 211730
TAFMKE
TAF
KMKE 211730Z 2118/2224 20011KT P6SM FEW035
     FM212000 16010KT P6SM SCT040
     FM220200 17006KT P6SM SKC
     FM221400 20011G17KT P6SM SCT250
     FM222100 23012G19KT P6SM VCTS SCT050CB=



000
FTUS43 KMKX 211730
TAFMSN
TAF
KMSN 211730Z 2118/2218 19011G15KT P6SM SCT050
     FM220100 17007KT P6SM SKC
     FM221400 20011G19KT P6SM SCT250=



000
FTUS43 KMKX 211730
TAFMKE
TAF
KMKE 211730Z 2118/2224 20011KT P6SM FEW035
     FM212000 16010KT P6SM SCT040
     FM220200 17006KT P6SM SKC
     FM221400 20011G17KT P6SM SCT250
     FM222100 23012G19KT P6SM VCTS SCT050CB=



000
FTUS43 KMKX 211730
TAFMSN
TAF
KMSN 211730Z 2118/2218 19011G15KT P6SM SCT050
     FM220100 17007KT P6SM SKC
     FM221400 20011G19KT P6SM SCT250=



000
FTUS43 KMKX 211503 AAA
TAFMKE
TAF AMD
KMKE 211503Z 2115/2218 21011KT P6SM SKC
     FM211700 20011G15KT P6SM SCT050
     FM211900 16010KT P6SM FEW050
     FM220200 17006KT P6SM FEW050
     FM221400 20010G17KT P6SM BKN150=



000
FTUS43 KMKX 211500 AAA
TAFMSN
TAF AMD
KMSN 211500Z 2115/2212 19012G18KT P6SM FEW040
     FM211700 19011G15KT P6SM BKN050
     FM220200 17006KT P6SM SCT050
     FM220900 17005KT P6SM VCTS BKN070CB=



000
FTUS43 KMKX 211500 AAA
TAFMSN
TAF AMD
KMSN 211500Z 2115/2212 19012G18KT P6SM FEW040
     FM211700 19011G15KT P6SM BKN050
     FM220200 17006KT P6SM SCT050
     FM220900 17005KT P6SM VCTS BKN070CB=



000
FTUS43 KMKX 211120
TAFMSN
TAF
KMSN 211120Z 2112/2212 19006KT P6SM FEW040
     FM211800 19010KT P6SM BKN050
     FM220300 17006KT P6SM SCT050
     FM220900 17005KT P6SM VCTS BKN070CB=



000
FTUS43 KMKX 211120
TAFMKE
TAF
KMKE 211120Z 2112/2218 21005KT P6SM SKC
     FM211600 20009KT P6SM FEW050
     FM211900 17010KT P6SM SCT050
     FM220300 17006KT P6SM FEW050
     FM221400 20010G17KT P6SM BKN150=



000
FTUS43 KMKX 211120
TAFMKE
TAF
KMKE 211120Z 2112/2218 21005KT P6SM SKC
     FM211600 20009KT P6SM FEW050
     FM211900 17010KT P6SM SCT050
     FM220300 17006KT P6SM FEW050
     FM221400 20010G17KT P6SM BKN150=



000
FTUS43 KMKX 211120
TAFMSN
TAF
KMSN 211120Z 2112/2212 19006KT P6SM FEW040
     FM211800 19010KT P6SM BKN050
     FM220300 17006KT P6SM SCT050
     FM220900 17005KT P6SM VCTS BKN070CB=



000
FTUS43 KMKX 210943 AAA
TAFMKE
TAF AMD
KMKE 210943Z 2110/2212 18003KT P6SM SKC
     FM211500 20010KT P6SM SCT035
     FM211900 16010KT P6SM SCT040 BKN200
     FM220400 18007KT P6SM SCT100 BKN200
     FM221000 18009KT P6SM BKN080=



000
FTUS43 KMKX 210943 AAA
TAFMKE
TAF AMD
KMKE 210943Z 2110/2212 18003KT P6SM SKC
     FM211500 20010KT P6SM SCT035
     FM211900 16010KT P6SM SCT040 BKN200
     FM220400 18007KT P6SM SCT100 BKN200
     FM221000 18009KT P6SM BKN080=



    US Dept of Commerce
    National Oceanic and Atmospheric Administration
    National Weather Service
    1325 East West Highway
    Silver Spring, MD 20910
    Page Author: NWS Internet Services Team
Disclaimer
Information Quality
Credits
Glossary
Privacy Policy
Freedom of Information Act (FOIA)
About Us
Career Opportunities